Quellon, Chile
Current Conditions -  °F | °C
As of 9:00 PM on Tuesday 21 Oct 2014 (Local Time) from SCPQ Reporting Station
Overcast Overcast  
Wind Chill: 54°   Ceiling: 200
Heat Index: 54°   Visibility: NA
Dew Point: 52°   Wind: 14mph
Humidity: 94%   Direction: 340°NNW
Pressure: 29.88"   Gusts: NA
Location:  43.14°S, 73.66°W
Report Text: SCPQ 220000Z AUTO 34012KT //// R35/P2000N OVC002 12/11 Q1012
Loading
Personal Weather Stations






























Interactive Weather Map
Tropical Storm Tracking
New forecast layout! Learn more

10-Day Weather Forecast

Advertisements
Track Severe Weather on mobile